Terminal Aerodrome Forecast
Issued by NWS Tuscon, AZ

Home | Current Version | Previous Version | Text Only | Print | Product List | Glossary On
Versions: 1 2 3 4 5 6 7 8 9 10 11 12 13
000
FTUS45 KTWC 300520
TAFDUG
TAF
KDUG 300520Z 3006/0106 04008KT P6SM VCSH SCT060 BKN110
     FM300700 01005KT P6SM SCT070 SCT110
     FM301900 30008KT P6SM VCSH SCT080 BKN120
     FM010300 36005KT P6SM SCT080 SCT120=

USA.gov is the U.S. government's official web portal to all federal, state and local government web resources and services.